createdAt,value
2022-11-02T00:02:17.150Z,99144.78
2022-11-02T00:04:44.391Z,99136.22
2022-11-02T00:07:11.525Z,99142.19
2022-11-02T00:09:38.678Z,99142.25
2022-11-02T00:12:05.757Z,99139.78
2022-11-02T00:14:32.858Z,99126.97
2022-11-02T00:16:59.985Z,99129.56
2022-11-02T00:19:27.111Z,99130.41
2022-11-02T00:21:55.699Z,99134.66
2022-11-02T00:24:22.765Z,99132.28
2022-11-02T00:26:49.890Z,99133.13
2022-11-02T00:29:17.018Z,99140.94
2022-11-02T00:31:44.115Z,99139.22
2022-11-02T00:34:11.206Z,99140.19
2022-11-02T00:36:38.277Z,99141.00
2022-11-02T00:39:05.416Z,99143.59
2022-11-02T00:41:32.564Z,99148.00
2022-11-02T00:43:59.642Z,99147.16
2022-11-02T00:46:26.757Z,99151.53
2022-11-02T00:48:53.847Z,99151.53
2022-11-02T00:51:21.201Z,99142.91
2022-11-02T00:53:48.308Z,99147.28
2022-11-02T00:56:15.412Z,99150.75
2022-11-02T00:58:42.507Z,99152.53
2022-11-02T01:01:09.746Z,99157.75
2022-11-02T01:03:36.936Z,99155.13
2022-11-02T01:06:04.162Z,99159.50
2022-11-02T01:08:31.232Z,99151.69
2022-11-02T01:10:58.490Z,99153.47
2022-11-02T01:13:25.568Z,99150.13
2022-11-02T01:15:52.654Z,99149.22
2022-11-02T01:18:19.791Z,99148.38
2022-11-02T01:20:46.866Z,99147.53
2022-11-02T01:23:13.938Z,99142.31
2022-11-02T01:25:41.073Z,99144.09
2022-11-02T01:28:08.151Z,99146.69
2022-11-02T01:30:35.253Z,99141.47
2022-11-02T01:33:02.332Z,99147.63
2022-11-02T01:35:29.405Z,99141.59
2022-11-02T01:37:56.482Z,99135.44
2022-11-02T01:40:23.561Z,99134.63
2022-11-02T01:42:50.672Z,99139.00
2022-11-02T01:45:17.792Z,99142.44
2022-11-02T01:47:45.514Z,99136.41
2022-11-02T01:50:12.592Z,99138.16
2022-11-02T01:52:39.763Z,99138.16
2022-11-02T01:55:06.937Z,99130.38
2022-11-02T01:57:34.054Z,99133.78
2022-11-02T02:00:01.134Z,99132.13
2022-11-02T02:02:28.362Z,99137.41
2022-11-02T02:04:55.612Z,99132.22
2022-11-02T02:07:24.260Z,99132.22
2022-11-02T02:09:51.604Z,99129.63
2022-11-02T02:12:18.751Z,99126.19
2022-11-02T02:14:45.865Z,99129.63
2022-11-02T02:17:12.952Z,99129.63
2022-11-02T02:19:40.097Z,99126.19
2022-11-02T02:22:07.172Z,99122.75
2022-11-02T02:24:34.268Z,99120.97
2022-11-02T02:27:01.339Z,99121.91
2022-11-02T02:29:28.435Z,99120.97
2022-11-02T02:31:55.522Z,99118.50
2022-11-02T02:34:22.617Z,99118.56
2022-11-02T02:36:49.738Z,99115.88
2022-11-02T02:39:16.878Z,99112.41
2022-11-02T02:41:43.987Z,99108.06
2022-11-02T02:44:11.843Z,99109.81
2022-11-02T02:46:40.518Z,99104.63
2022-11-02T02:49:09.769Z,99098.59
2022-11-02T02:51:36.940Z,99105.56
2022-11-02T02:54:04.025Z,99103.91
2022-11-02T02:56:31.151Z,99102.13
2022-11-02T02:58:58.297Z,99102.13
2022-11-02T03:01:25.801Z,99103.06
2022-11-02T03:03:52.938Z,99097.94
2022-11-02T03:06:20.040Z,99097.03
2022-11-02T03:08:47.130Z,99107.44
2022-11-02T03:11:14.281Z,99093.59
2022-11-02T03:13:41.408Z,99097.94
2022-11-02T03:16:08.480Z,99095.34
2022-11-02T03:18:35.592Z,99090.16
2022-11-02T03:21:02.661Z,99097.22
2022-11-02T03:23:29.871Z,99097.22
2022-11-02T03:25:57.002Z,99100.66
2022-11-02T03:28:24.149Z,99103.16
2022-11-02T03:30:51.217Z,99104.09
2022-11-02T03:33:18.326Z,99102.44
2022-11-02T03:35:45.426Z,99108.47
2022-11-02T03:38:12.518Z,99107.72
2022-11-02T03:40:39.613Z,99105.13
2022-11-02T03:43:06.765Z,99115.44
2022-11-02T03:45:33.845Z,99112.09
2022-11-02T03:48:01.036Z,99114.72
2022-11-02T03:50:28.270Z,99114.72
2022-11-02T03:52:55.393Z,99119.91
2022-11-02T03:55:22.461Z,99117.31
2022-11-02T03:57:49.536Z,99111.28
2022-11-02T04:00:16.660Z,99118.25
2022-11-02T04:02:44.736Z,99118.13
2022-11-02T04:05:11.927Z,99116.47
2022-11-02T04:07:59.542Z,99118.25
2022-11-02T04:10:26.828Z,99119.09
2022-11-02T04:13:29.630Z,99120.03
2022-11-02T04:15:56.728Z,99113.06
2022-11-02T04:18:42.778Z,99122.63
2022-11-02T04:21:09.773Z,99123.56
2022-11-02T04:23:55.740Z,99120.97
2022-11-02T04:26:22.860Z,99115.75
2022-11-02T04:28:49.933Z,99123.56
2022-11-02T04:31:17.040Z,99119.28
2022-11-02T04:33:44.112Z,99123.66
2022-11-02T04:36:11.272Z,99119.28
2022-11-02T04:38:41.129Z,99119.28
2022-11-02T04:41:26.972Z,99114.06
2022-11-02T04:43:54.157Z,99114.19
2022-11-02T04:46:21.256Z,99109.00
2022-11-02T04:48:48.386Z,99120.22
2022-11-02T04:51:15.469Z,99124.47
2022-11-02T04:53:42.630Z,99120.22
2022-11-02T04:56:09.766Z,99126.25
2022-11-02T04:58:36.862Z,99118.44
2022-11-02T05:01:03.924Z,99119.41
2022-11-02T05:03:31.050Z,99128.97
2022-11-02T05:05:58.128Z,99135.13
2022-11-02T05:08:25.198Z,99126.38
2022-11-02T05:10:52.513Z,99129.91
2022-11-02T05:13:19.612Z,99129.91
2022-11-02T05:15:46.690Z,99125.63
2022-11-02T05:18:18.620Z,99125.63
2022-11-02T05:20:46.241Z,99134.25
2022-11-02T05:23:13.313Z,99135.13
2022-11-02T05:25:40.393Z,99133.34
2022-11-02T05:28:07.526Z,99138.63
2022-11-02T05:30:34.628Z,99138.63
2022-11-02T05:33:03.128Z,99136.16
2022-11-02T05:35:30.700Z,99139.56
2022-11-02T05:37:57.791Z,99137.09
2022-11-02T05:40:24.855Z,99145.72
2022-11-02T05:42:51.970Z,99143.94
2022-11-02T05:45:22.154Z,99146.56
2022-11-02T05:47:51.731Z,99152.59
2022-11-02T05:50:18.802Z,99152.59
2022-11-02T05:52:45.876Z,99152.59
2022-11-02T05:55:12.941Z,99153.53
2022-11-02T05:57:40.039Z,99154.34
2022-11-02T06:00:07.115Z,99156.13
2022-11-02T06:02:41.702Z,99164.84
2022-11-02T06:05:08.858Z,99163.09
2022-11-02T06:07:35.977Z,99168.31
2022-11-02T06:10:03.399Z,99166.53
2022-11-02T06:12:30.493Z,99163.09
2022-11-02T06:14:57.605Z,99168.31
2022-11-02T06:17:24.949Z,99164.03
2022-11-02T06:19:52.114Z,99164.97
2022-11-02T06:22:19.207Z,99164.97
2022-11-02T06:24:46.506Z,99171.81
2022-11-02T06:27:13.649Z,99182.22
2022-11-02T06:29:40.748Z,99187.44
2022-11-02T06:32:07.810Z,99190.88
2022-11-02T06:34:34.928Z,99188.38
2022-11-02T06:37:02.112Z,99193.59
2022-11-02T06:39:29.231Z,99197.84
2022-11-02T06:41:56.341Z,99197.13
2022-11-02T06:44:23.429Z,99204.09
2022-11-02T06:46:50.523Z,99199.81
2022-11-02T06:49:17.639Z,99193.69
2022-11-02T06:51:44.745Z,99195.34
2022-11-02T06:54:11.830Z,99207.53
2022-11-02T06:56:38.940Z,99209.31
2022-11-02T06:59:06.029Z,99215.34
2022-11-02T07:01:33.249Z,99219.72
2022-11-02T07:04:00.478Z,99217.94
2022-11-02T07:06:27.570Z,99214.50
2022-11-02T07:08:54.664Z,99222.31
2022-11-02T07:11:21.783Z,99229.19
2022-11-02T07:13:48.896Z,99230.13
2022-11-02T07:16:16.170Z,99230.13
2022-11-02T07:18:43.354Z,99228.44
2022-11-02T07:21:11.899Z,99236.22
2022-11-02T07:23:39.142Z,99240.53
2022-11-02T07:26:06.229Z,99235.31
2022-11-02T07:28:33.369Z,99244.91
2022-11-02T07:31:00.453Z,99256.22
2022-11-02T07:33:27.590Z,99255.31
2022-11-02T07:35:54.663Z,99250.09
2022-11-02T07:38:21.761Z,99256.13
2022-11-02T07:40:48.836Z,99252.59
2022-11-02T07:43:15.936Z,99260.41
2022-11-02T07:45:43.100Z,99268.22
2022-11-02T07:48:10.213Z,99256.13
2022-11-02T07:50:37.292Z,99263.00
2022-11-02T07:53:04.962Z,99273.41
2022-11-02T07:55:32.322Z,99269.88
2022-11-02T07:57:59.524Z,99271.53
2022-11-02T08:00:26.829Z,99268.94
2022-11-02T08:02:54.000Z,99273.22
2022-11-02T08:05:21.118Z,99281.09
2022-11-02T08:07:49.064Z,99285.41
2022-11-02T08:10:16.210Z,99287.13
2022-11-02T08:12:43.279Z,99288.00
2022-11-02T08:15:10.353Z,99287.06
2022-11-02T08:17:37.437Z,99286.22
2022-11-02T08:20:04.584Z,99283.63
2022-11-02T08:22:31.754Z,99284.47
2022-11-02T08:24:58.834Z,99282.81
2022-11-02T08:27:25.906Z,99288.00
2022-11-02T08:29:52.998Z,99287.06
2022-11-02T08:32:20.078Z,99300.06
2022-11-02T08:34:47.251Z,99303.50
2022-11-02T08:37:14.323Z,99298.31
2022-11-02T08:39:41.610Z,99301.75
2022-11-02T08:42:08.761Z,99309.53
2022-11-02T08:44:41.491Z,99307.06
2022-11-02T08:47:09.830Z,99307.78
2022-11-02T08:49:37.048Z,99310.28
2022-11-02T08:52:04.142Z,99310.06
2022-11-02T08:54:31.271Z,99306.28
2022-11-02T08:56:58.393Z,99300.03
2022-11-02T08:59:26.061Z,99305.97
2022-11-02T09:01:53.283Z,99305.88
2022-11-02T09:04:20.493Z,99312.00
2022-11-02T09:06:47.608Z,99314.53
2022-11-02T09:09:14.782Z,99313.41
2022-11-02T09:11:41.862Z,99310.78
2022-11-02T09:14:09.020Z,99313.41
2022-11-02T09:16:41.030Z,99316.72
2022-11-02T09:19:08.623Z,99313.22
2022-11-02T09:21:35.705Z,99312.28
2022-11-02T09:24:02.838Z,99313.94
2022-11-02T09:26:29.917Z,99313.09
2022-11-02T09:28:57.113Z,99317.38
2022-11-02T09:31:24.765Z,99317.31
2022-11-02T09:33:51.860Z,99306.91
2022-11-02T09:36:19.005Z,99312.09
2022-11-02T09:38:46.120Z,99309.56
2022-11-02T09:41:13.723Z,99311.31
2022-11-02T09:43:40.792Z,99321.75
2022-11-02T09:46:07.972Z,99320.19
2022-11-02T09:48:35.681Z,99321.84
2022-11-02T09:51:02.985Z,99323.69
2022-11-02T09:53:30.074Z,99322.78
2022-11-02T09:55:57.144Z,99319.44
2022-11-02T09:58:25.375Z,99327.25
2022-11-02T10:00:52.543Z,99327.06
2022-11-02T10:03:20.206Z,99330.50
2022-11-02T10:05:47.388Z,99321.84
2022-11-02T10:08:14.508Z,99326.94
2022-11-02T10:10:41.711Z,99332.09
2022-11-02T10:13:08.870Z,99332.09
2022-11-02T10:15:35.952Z,99325.13
2022-11-02T10:18:03.073Z,99325.97
2022-11-02T10:20:30.162Z,99323.25
2022-11-02T10:22:57.281Z,99323.16
2022-11-02T10:25:25.461Z,99327.53
2022-11-02T10:27:52.945Z,99320.56
2022-11-02T10:30:20.203Z,99319.72
2022-11-02T10:32:47.645Z,99319.72
2022-11-02T10:35:36.690Z,99324.00
2022-11-02T10:38:02.139Z,99327.03
2022-11-02T10:40:29.522Z,99327.88
2022-11-02T10:42:56.693Z,99331.41
2022-11-02T10:45:23.839Z,99319.25
2022-11-02T10:47:50.910Z,99333.09
2022-11-02T10:50:18.073Z,99327.78
2022-11-02T10:52:45.177Z,99319.88
2022-11-02T10:55:12.273Z,99319.44
2022-11-02T10:57:39.355Z,99320.44
2022-11-02T11:00:07.248Z,99318.78
2022-11-02T11:02:34.338Z,99309.19
2022-11-02T11:05:01.449Z,99308.91
2022-11-02T11:07:28.710Z,99317.53
2022-11-02T11:09:55.837Z,99320.16
2022-11-02T11:12:22.925Z,99314.09
2022-11-02T11:20:24.131Z,99305.84
2022-11-02T11:22:51.282Z,99307.63
2022-11-02T11:25:21.766Z,99312.84
2022-11-02T11:27:51.524Z,99317.22
2022-11-02T11:30:33.516Z,99318.16
2022-11-02T11:33:05.726Z,99325.97
2022-11-02T11:35:32.828Z,99331.16
2022-11-02T11:37:59.979Z,99326.91
2022-11-02T11:40:27.155Z,99327.72
2022-11-02T11:42:57.510Z,99322.53
2022-11-02T11:45:28.474Z,99326.59
2022-11-02T11:47:55.559Z,99329.91
2022-11-02T11:50:31.010Z,99317.97
2022-11-02T11:52:58.187Z,99312.63
2022-11-02T11:55:25.328Z,99317.84
2022-11-02T11:57:52.453Z,99316.81
2022-11-02T12:00:19.547Z,99321.09
2022-11-02T12:02:46.708Z,99321.84
2022-11-02T12:05:14.130Z,99326.09
2022-11-02T12:07:41.197Z,99323.38
2022-11-02T12:10:08.291Z,99331.94
2022-11-02T12:12:35.381Z,99323.19
2022-11-02T12:15:06.611Z,99324.97
2022-11-02T12:17:34.208Z,99318.81
2022-11-02T12:20:01.308Z,99323.09
2022-11-02T12:22:28.426Z,99320.47
2022-11-02T12:24:55.562Z,99334.38
2022-11-02T12:27:22.639Z,99323.94
2022-11-02T12:29:49.726Z,99323.94
2022-11-02T12:32:16.897Z,99314.44
2022-11-02T12:34:46.534Z,99307.56
2022-11-02T12:37:40.253Z,99312.78
2022-11-02T12:40:03.523Z,99298.09
2022-11-02T12:42:30.754Z,99300.06
2022-11-02T12:44:57.831Z,99299.31
2022-11-02T12:47:25.959Z,99297.53
2022-11-02T12:49:53.137Z,99295.81
2022-11-02T12:52:20.239Z,99289.72
2022-11-02T12:54:47.408Z,99286.31
2022-11-02T12:57:14.530Z,99288.06
2022-11-02T12:59:42.283Z,99292.44
2022-11-02T13:02:09.815Z,99287.25
2022-11-02T13:04:39.678Z,99288.00
2022-11-02T13:07:07.044Z,99289.84
2022-11-02T13:09:34.127Z,99287.34
2022-11-02T13:12:01.221Z,99285.38
2022-11-02T13:14:29.207Z,99280.06
2022-11-02T13:16:56.290Z,99280.81
2022-11-02T13:19:23.450Z,99279.13
2022-11-02T13:21:50.664Z,99279.03
2022-11-02T13:24:17.726Z,99279.13
2022-11-02T13:26:44.915Z,99274.41
2022-11-02T13:29:12.004Z,99265.78
2022-11-02T13:31:39.091Z,99264.94
2022-11-02T13:34:06.308Z,99263.28
2022-11-02T13:36:33.399Z,99265.97
2022-11-02T13:39:00.989Z,99270.16
2022-11-02T13:41:28.125Z,99272.56
2022-11-02T13:43:55.202Z,99272.38
2022-11-02T13:46:23.313Z,99281.91
2022-11-02T13:48:50.441Z,99265.28
2022-11-02T13:51:17.507Z,99264.34
2022-11-02T13:53:47.568Z,99263.63
2022-11-02T13:56:16.000Z,99268.63
2022-11-02T13:58:43.079Z,99265.78
2022-11-02T14:01:10.220Z,99259.47
2022-11-02T14:03:37.675Z,99265.59
2022-11-02T14:06:04.749Z,99253.63
2022-11-02T14:08:31.928Z,99262.47
2022-11-02T14:11:03.211Z,99254.78
2022-11-02T14:13:30.697Z,99255.38
2022-11-02T14:15:57.790Z,99270.09
2022-11-02T14:18:25.558Z,99269.16
2022-11-02T14:20:52.669Z,99266.53
2022-11-02T14:23:19.877Z,99273.59
2022-11-02T14:25:47.060Z,99281.16
2022-11-02T14:28:14.166Z,99279.91
2022-11-02T14:30:42.070Z,99277.28
2022-11-02T14:33:09.300Z,99278.13
2022-11-02T14:35:36.634Z,99273.75
2022-11-02T14:38:04.320Z,99286.88
2022-11-02T14:40:31.801Z,99286.88
2022-11-02T14:42:58.950Z,99285.94
2022-11-02T14:45:26.097Z,99291.44
2022-11-02T14:47:53.250Z,99286.34
2022-11-02T14:50:20.351Z,99285.53
2022-11-02T14:52:47.417Z,99266.34
2022-11-02T14:55:14.500Z,99267.06
2022-11-02T14:57:41.637Z,99269.91
2022-11-02T15:00:08.798Z,99275.31
2022-11-02T15:02:38.687Z,99277.06
2022-11-02T15:05:09.226Z,99272.78
2022-11-02T15:07:36.405Z,99254.56
2022-11-02T15:10:03.466Z,99249.47
2022-11-02T15:12:30.967Z,99260.69
2022-11-02T15:14:58.099Z,99263.94
2022-11-02T15:17:25.878Z,99266.53
2022-11-02T15:19:53.764Z,99256.97
2022-11-02T15:22:20.942Z,99263.09
2022-11-02T15:24:48.050Z,99268.50
2022-11-02T15:27:15.131Z,99270.16
2022-11-02T15:29:42.282Z,99268.50
2022-11-02T15:32:10.349Z,99268.50
2022-11-02T15:34:37.424Z,99267.69
2022-11-02T15:37:04.529Z,99270.28
2022-11-02T15:39:31.755Z,99266.03
2022-11-02T15:41:58.968Z,99267.78
2022-11-02T15:44:26.145Z,99266.03
2022-11-02T15:46:53.680Z,99268.63
2022-11-02T15:49:20.771Z,99266.03
2022-11-02T15:51:47.933Z,99272.06
2022-11-02T15:54:15.079Z,99272.78
2022-11-02T15:56:42.202Z,99272.69
2022-11-02T15:59:09.298Z,99277.16
2022-11-02T16:01:36.549Z,99279.03
2022-11-02T16:04:04.119Z,99274.66
2022-11-02T16:06:31.351Z,99268.41
2022-11-02T16:08:58.550Z,99269.66
2022-11-02T16:11:26.010Z,99274.03
2022-11-02T16:14:08.407Z,99269.00
2022-11-02T16:16:36.319Z,99269.66
2022-11-02T16:19:04.065Z,99266.94
2022-11-02T16:21:31.203Z,99271.94
2022-11-02T16:23:59.486Z,99266.66
2022-11-02T16:26:26.600Z,99267.38
2022-11-02T16:28:53.704Z,99266.75
2022-11-02T16:31:20.785Z,99267.69
2022-11-02T16:33:47.878Z,99266.75
2022-11-02T16:36:14.993Z,99255.38
2022-11-02T16:38:42.070Z,99257.97
2022-11-02T16:41:11.215Z,99268.97
2022-11-02T16:43:44.466Z,99268.31
2022-11-02T16:46:12.752Z,99269.47
2022-11-02T16:48:39.819Z,99275.81
2022-11-02T16:51:10.544Z,99268.06
2022-11-02T16:53:41.479Z,99272.88
2022-11-02T16:56:08.589Z,99268.41
2022-11-02T16:58:35.658Z,99266.75
2022-11-02T17:01:04.170Z,99251.88
2022-11-02T17:03:31.723Z,99247.28
2022-11-02T17:05:59.014Z,99245.41
2022-11-02T17:08:26.245Z,99248.94
2022-11-02T17:10:55.071Z,99252.19
2022-11-02T17:13:23.124Z,99261.56
2022-11-02T17:15:50.459Z,99270.03
2022-11-02T17:18:17.623Z,99274.09
2022-11-02T17:20:44.693Z,99274.81
2022-11-02T17:23:11.772Z,99271.38
2022-11-02T17:25:38.904Z,99270.53
2022-11-02T17:28:06.264Z,99267.00
2022-11-02T17:30:37.005Z,99260.25
2022-11-02T17:33:04.183Z,99262.63
2022-11-02T17:35:31.327Z,99269.22
2022-11-02T17:37:58.433Z,99266.81
2022-11-02T17:40:25.524Z,99270.34
2022-11-02T17:42:58.620Z,99264.06
2022-11-02T17:45:25.798Z,99263.88
2022-11-02T17:47:52.912Z,99250.84
2022-11-02T17:50:20.060Z,99256.19
2022-11-02T17:52:49.034Z,99255.13
2022-11-02T17:55:19.092Z,99253.47
2022-11-02T17:57:46.575Z,99245.44
2022-11-02T18:00:13.759Z,99242.84
2022-11-02T18:02:40.982Z,99242.53
2022-11-02T18:05:08.155Z,99243.34
2022-11-02T18:07:35.224Z,99239.84
2022-11-02T18:10:02.311Z,99251.09
2022-11-02T18:12:29.424Z,99249.31
2022-11-02T18:14:56.523Z,99247.22
2022-11-02T18:17:23.602Z,99240.34
2022-11-02T18:19:50.689Z,99235.13
2022-11-02T18:22:17.835Z,99234.19
2022-11-02T18:24:44.976Z,99231.69
2022-11-02T18:27:12.130Z,99230.94
2022-11-02T18:29:39.329Z,99227.44
2022-11-02T18:32:06.393Z,99229.81
2022-11-02T18:34:33.492Z,99219.19
2022-11-02T18:37:01.163Z,99222.53
2022-11-02T18:39:28.309Z,99217.31
2022-11-02T18:41:55.440Z,99216.56
2022-11-02T18:44:22.537Z,99215.75
2022-11-02T18:46:49.906Z,99222.84
2022-11-02T18:49:17.049Z,99217.41
2022-11-02T18:51:45.701Z,99213.13
2022-11-02T18:54:13.178Z,99219.28
2022-11-02T18:56:40.454Z,99216.56
2022-11-02T18:59:08.250Z,99209.38
2022-11-02T19:01:35.975Z,99212.50
2022-11-02T19:04:03.150Z,99209.41
2022-11-02T19:06:49.073Z,99206.66
2022-11-02T19:09:19.499Z,99211.69
2022-11-02T19:11:47.242Z,99212.50
2022-11-02T19:14:14.598Z,99208.44
2022-11-02T19:16:41.909Z,99212.09
2022-11-02T19:19:09.135Z,99212.31
2022-11-02T19:21:36.263Z,99209.41
2022-11-02T19:24:03.415Z,99208.22
2022-11-02T19:26:30.544Z,99208.97
2022-11-02T19:29:01.427Z,99209.25
2022-11-02T19:31:32.213Z,99200.81
2022-11-02T19:34:02.540Z,99203.41
2022-11-02T19:36:29.658Z,99202.91
2022-11-02T19:38:58.329Z,99216.88
2022-11-02T19:41:25.432Z,99210.09
2022-11-02T19:43:53.188Z,99216.13
2022-11-02T19:46:20.370Z,99199.66
2022-11-02T19:48:47.462Z,99204.69
2022-11-02T19:51:17.513Z,99206.44
2022-11-02T19:53:47.413Z,99204.69
2022-11-02T19:56:14.498Z,99203.94
2022-11-02T19:58:41.684Z,99199.66
2022-11-02T20:01:08.833Z,99194.47
2022-11-02T20:03:35.969Z,99192.69
2022-11-02T20:06:03.075Z,99201.44
2022-11-02T20:08:30.181Z,99192.06
2022-11-02T20:10:59.489Z,99186.03
2022-11-02T20:13:26.569Z,99189.44
2022-11-02T20:15:53.680Z,99186.03
2022-11-02T20:18:20.781Z,99187.78
2022-11-02T20:20:47.917Z,99193.94
2022-11-02T20:23:14.993Z,99192.38
2022-11-02T20:25:42.064Z,99204.44
2022-11-02T20:28:09.211Z,99199.16
2022-11-02T20:30:36.322Z,99191.53
2022-11-02T20:33:03.410Z,99195.91
2022-11-02T20:35:30.556Z,99191.53
2022-11-02T20:37:57.683Z,99185.38
2022-11-02T20:40:24.846Z,99192.75
2022-11-02T20:42:52.021Z,99191.94
2022-11-02T20:45:19.203Z,99188.69
2022-11-02T20:47:46.326Z,99194.75
2022-11-02T20:50:16.638Z,99189.31
2022-11-02T20:52:45.547Z,99191.94
2022-11-02T20:55:12.699Z,99196.50
2022-11-02T20:57:39.769Z,99191.53
2022-11-02T21:00:06.893Z,99197.72
2022-11-02T21:02:34.147Z,99197.09
2022-11-02T21:05:01.249Z,99193.56
2022-11-02T21:07:28.635Z,99186.69
2022-11-02T21:09:55.718Z,99196.25
2022-11-02T21:12:41.812Z,99198.88
2022-11-02T21:15:08.890Z,99196.47
2022-11-02T21:17:36.190Z,99194.81
2022-11-02T21:20:28.480Z,99186.25
2022-11-02T21:22:50.395Z,99188.84
2022-11-02T21:25:17.502Z,99188.97
2022-11-02T21:27:44.571Z,99184.69
2022-11-02T21:30:11.658Z,99189.03
2022-11-02T21:32:38.896Z,99185.59
2022-11-02T21:35:06.806Z,99183.94
2022-11-02T21:37:33.943Z,99179.78
2022-11-02T21:40:01.013Z,99178.00
2022-11-02T21:42:28.136Z,99182.38
2022-11-02T21:44:55.251Z,99184.97
2022-11-02T21:47:22.348Z,99182.47
2022-11-02T21:49:49.431Z,99195.56
2022-11-02T21:52:16.537Z,99188.63
2022-11-02T21:54:43.603Z,99184.44
2022-11-02T21:57:10.666Z,99183.63
2022-11-02T21:59:37.745Z,99192.25
2022-11-02T22:02:04.923Z,99182.78
2022-11-02T22:04:32.489Z,99179.34
2022-11-02T22:06:59.616Z,99176.00
2022-11-02T22:09:26.844Z,99171.75
2022-11-02T22:12:12.290Z,99179.63
2022-11-02T22:14:39.387Z,99166.63
2022-11-02T22:17:16.155Z,99164.97
2022-11-02T22:19:43.896Z,99167.69
2022-11-02T22:22:11.091Z,99177.13
2022-11-02T22:24:42.144Z,99172.13
2022-11-02T22:27:11.834Z,99163.50
2022-11-02T22:29:38.946Z,99163.50
2022-11-02T22:32:06.068Z,99159.22
2022-11-02T22:34:33.148Z,99161.00
2022-11-02T22:37:20.193Z,99148.06
2022-11-02T22:39:47.285Z,99152.44
2022-11-02T22:42:14.393Z,99147.25
2022-11-02T22:44:41.520Z,99147.25
2022-11-02T22:47:08.597Z,99151.63
2022-11-02T22:49:36.296Z,99144.75
2022-11-02T22:52:03.448Z,99140.47
2022-11-02T22:54:30.657Z,99140.47
2022-11-02T22:56:57.837Z,99131.00
2022-11-02T22:59:24.898Z,99131.84
2022-11-02T23:01:52.204Z,99127.56
2022-11-02T23:04:19.503Z,99119.03
2022-11-02T23:06:46.658Z,99128.50
2022-11-02T23:09:13.744Z,99123.38
2022-11-02T23:11:40.856Z,99123.38
2022-11-02T23:14:08.034Z,99129.53
2022-11-02T23:16:35.145Z,99138.16
2022-11-02T23:19:28.604Z,99126.94
2022-11-02T23:22:15.014Z,99121.72
2022-11-02T23:25:00.725Z,99124.34
2022-11-02T23:27:27.874Z,99120.06
2022-11-02T23:30:13.709Z,99120.16
2022-11-02T23:32:40.830Z,99114.03
2022-11-02T23:35:26.837Z,99116.72
2022-11-02T23:37:53.910Z,99126.31
2022-11-02T23:40:20.987Z,99120.25
2022-11-02T23:42:48.097Z,99116.72
2022-11-02T23:45:15.175Z,99117.75
2022-11-02T23:47:57.677Z,99116.09
2022-11-02T23:50:43.329Z,99110.81
2022-11-02T23:53:28.938Z,99114.31
2022-11-02T23:56:14.694Z,99108.41
2022-11-02T23:58:41.849Z,99105.69
